Latest Coastal Weather Observations for Sydney Airport

IDN60701

Issued at 12:52 pm EST Thursday 28 July 2016 (issued every 10 minutes, with the page automatically refreshed every 10 minutes)

About coastal observations | Map of coastal stations | Coastal observations for NSW | Marine services | Other Formats
Station Details ID: 066037 Name: SYDNEY AIRPORT AMO Lat: -33.95 Lon: 151.17 Height: 6.0 m
Data from the previous 72 hours. | See also: Recent months at Sydney Airport
Date/Time
EST
Temp
°C
Wind Pressure Rain since
9am
mm
Weather Cloud Vis
km
Sea
Height
m
Swell
Dir  Spd
kts
Gust
kts
hPa Trend Height
m
Period
s
Dir
28/12:30pm 18.0 NW 9 12 1022.0 - 0.0 - - 10 - - - -
28/12:00pm 17.7 NW 8 12 1022.5 F 0.0 Fine Clear 30 - - - -
28/11:30am 17.3 WNW 9 13 1023.1 - 0.0 - - 10 - - - -
28/11:00am 16.1 WNW 8 10 1023.6 - 0.0 - - 10 - - - -
28/10:30am 15.4 WNW 9 14 1024.2 - 0.0 - - 10 - - - -
28/10:00am 14.3 W 12 16 1024.3 - 0.0 - - 10 - - - -
28/09:30am 14.1 W 9 12 1024.0 - 0.0 - - 10 - - - -
28/09:00am 12.7 WSW 11 14 1024.0 R 0.0 Fine Mostly clear 40 - - - -
28/08:30am 11.8 WSW 11 14 1023.9 - 0.0 - - 10 - - - -
28/08:00am 10.8 WSW 13 18 1023.8 - 0.0 - - 10 - - - -
28/07:30am 9.5 WNW 7 9 1023.6 - 0.0 - - 10 - - - -
28/07:00am 9.8 NW 6 8 1023.2 - 0.0 - - 10 - - - -
28/06:30am 9.6 WNW 9 11 1022.5 - 0.0 - - 10 - - - -
28/06:00am 8.1 WNW 7 10 1022.2 R 0.0 Fine Mostly clear 30 - - - -
28/05:30am 9.2 W 9 11 1022.1 - 0.0 - - 10 - - - -
28/05:00am 9.8 W 9 12 1021.5 - 0.0 - - 10 - - - -
28/04:30am 10.4 WNW 11 14 1021.0 - 0.0 - - 10 - - - -
28/04:00am 10.1 NW 10 13 1020.7 - 0.0 - - 10 - - - -
28/03:30am 10.9 W 11 14 1020.5 - 0.0 - - 10 - - - -
28/03:00am 10.7 W 14 17 1020.4 R 0.0 Fine Clear 30 - - - -
28/02:30am 10.6 W 14 16 1020.6 - 0.0 - - 10 - - - -
28/02:00am 10.9 W 12 16 1021.0 - 0.0 - - 10 - - - -
28/01:30am 10.9 WNW 12 16 1021.0 - 0.0 - - 10 - - - -
28/01:00am 11.1 WNW 13 16 1020.9 - 0.0 - - 10 - - - -
28/12:30am 11.6 W 12 16 1020.9 - 0.0 - - 10 - - - -
28/12:00am 11.8 W 14 17 1020.6 R 0.0 Fine Clear 30 - - - -
 
Date/Time
EST
Temp
°C
Wind Pressure Rain since
9am
mm
Weather Cloud Vis
km
Sea
Height
m
Swell
Dir  Spd
kts
Gust
kts
hPa Trend Height
m
Period
s
Dir
27/11:30pm 11.8 W 15 19 1020.2 - 0.0 - - 10 - - - -
27/11:00pm 12.3 WNW 13 16 1019.8 - 0.0 - - 10 - - - -
27/10:30pm 12.5 WNW 17 22 1019.8 - 0.0 - - 10 - - - -
27/10:00pm 12.6 W 17 20 1019.9 - 0.0 - - 10 - - - -
27/09:30pm 12.8 W 14 18 1019.8 - 0.0 - - 10 - - - -
27/09:00pm 12.8 W 12 16 1019.6 R 0.0 Fine Clear 30 - - - -
27/08:30pm 13.5 WNW 10 14 1019.2 - 0.0 - - 10 - - - -
27/08:00pm 13.8 WNW 12 16 1018.8 - 0.0 - - 10 - - - -
27/07:30pm 14.1 WNW 13 16 1018.4 - 0.0 - - 10 - - - -
27/07:00pm 14.2 W 17 20 1017.9 - 0.0 - - 10 - - - -
27/06:30pm 14.4 W 14 19 1017.2 - 0.0 - - 10 - - - -
27/06:00pm 15.0 W 12 18 1016.4 R 0.0 Fine Mostly clear 40 - - - -
27/05:30pm 15.3 WSW 14 18 1015.9 - 0.0 - - 10 - - - -
27/05:00pm 15.9 W 20 27 1015.4 - 0.0 - - 10 - - - -
27/04:30pm 16.6 W 17 24 1014.7 - 0.0 - - 10 - - - -
27/04:00pm 17.3 W 17 22 1014.3 - 0.0 - - 10 - - - -
27/03:30pm 17.5 W 17 26 1013.9 - 0.0 - - 10 - - - -
27/03:00pm 17.7 W 18 26 1013.4 R 0.0 Fine Partly cloudy 30 - - - -
27/02:30pm 18.5 WSW 21 29 1013.1 - 0.0 - Partly cloudy 10 - - - -
27/02:00pm 18.4 W 21 28 1012.9 - 0.0 - Partly cloudy 10 - - - -
27/01:32pm 18.3 W 19 29 1012.6 - 0.0 - Partly cloudy 10 - - - -
27/01:30pm 18.4 W 18 24 1012.6 - 0.0 - Partly cloudy 10 - - - -
27/01:02pm 17.9 W 15 27 1012.6 - 0.0 - Partly cloudy 10 - - - -
27/01:00pm 18.7 W 14 27 1012.5 - 0.0 - Partly cloudy 10 - - - -
27/12:54pm 18.0 WNW 16 27 1012.4 - 0.0 - Partly cloudy 10 - - - -
27/12:30pm 18.3 W 15 20 1012.4 - 0.0 - Partly cloudy 10 - - - -
27/12:00pm 18.6 W 20 29 1012.5 R 0.0 Fine Partly cloudy 30 - - - -
27/11:30am 18.2 WNW 18 24 1012.2 - 0.0 - - 10 - - - -
27/11:00am 17.5 W 21 27 1011.7 - 0.0 - Partly cloudy 10 - - - -
27/10:30am 17.8 WNW 18 28 1012.3 - 0.0 - Partly cloudy 10 - - - -
27/10:21am 17.7 WNW 15 28 1012.4 - 0.0 - Partly cloudy 10 - - - -
27/10:00am 17.0 NW 12 19 1012.7 - 0.0 - Partly cloudy 10 - - - -
27/09:30am 16.3 NW 14 19 1012.3 - 0.0 - - 10 - - - -
27/09:00am 15.8 NW 13 18 1012.0 F 0.0 Fine Mostly clear 30 - - - -
27/08:30am 14.5 NW 17 22 1011.6 - 0.0 - - 10 - - - -
27/08:00am 14.2 NW 18 20 1011.8 - 0.0 - - 10 - - - -
27/07:30am 13.6 NW 17 21 1011.6 - 0.0 - - 10 - - - -
27/07:00am 13.8 NNW 17 21 1011.3 - 0.0 - - 10 - - - -
27/06:30am 12.7 NNW 10 15 1011.4 - 0.0 - - 10 - - - -
27/06:00am 12.7 NNW 13 16 1011.4 F 0.0 Fine Mostly clear 30 - - - -
27/05:30am 12.5 NNW 10 16 1011.5 - 0.0 - - 10 - - - -
27/05:00am 11.8 NW 11 15 1011.7 - 0.0 - - 10 - - - -
27/04:30am 11.1 NNW 12 14 1011.5 - 0.0 - - 10 - - - -
27/04:00am 11.1 NNW 12 14 1011.6 - 0.0 - - 10 - - - -
27/03:30am 11.9 NNW 12 15 1011.9 - 0.0 - - 10 - - - -
27/03:00am 11.7 NNW 12 16 1012.0 F 0.0 Fine Mostly clear 30 - - - -
27/02:30am 11.9 NW 8 10 1013.0 - 0.0 - - 10 - - - -
27/02:00am 11.8 NNW 8 8 1013.6 - 0.0 - - 10 - - - -
27/01:30am 12.0 N 7 8 1013.7 - 0.0 - - 10 - - - -
27/01:00am 11.9 NNW 6 7 1013.5 - 0.0 - Partly cloudy 10 - - - -
27/12:30am 12.9 N 9 10 1013.8 - 0.0 - Partly cloudy 10 - - - -
27/12:00am 13.1 N 9 10 1014.1 F 0.0 Fine Partly cloudy 30 - - - -
 
Date/Time
EST
Temp
°C
Wind Pressure Rain since
9am
mm
Weather Cloud Vis
km
Sea
Height
m
Swell
Dir  Spd
kts
Gust
kts
hPa Trend Height
m
Period
s
Dir
26/11:30pm 12.9 NNE 6 7 1014.2 - 0.0 - Partly cloudy 10 - - - -
26/11:00pm 12.2 NNE 5 6 1014.4 - 0.0 - Partly cloudy 10 - - - -
26/10:30pm 12.9 NNE 5 6 1014.7 - 0.0 - Cloudy 10 - - - -
26/10:00pm 12.6 NW 4 5 1014.6 - 0.0 - Partly cloudy 10 - - - -
26/09:30pm 12.3 W 5 7 1014.6 - 0.0 - - 10 - - - -
26/09:00pm 12.4 WSW 7 9 1014.7 R 0.0 Fine Mostly clear 30 - - - -
26/08:30pm 13.3 W 9 13 1014.6 - 0.0 - Partly cloudy 10 - - - -
26/08:00pm 13.5 W 12 15 1014.5 - 0.0 - - 10 - - - -
26/07:30pm 13.8 W 14 17 1014.4 - 0.0 - - 10 - - - -
26/07:00pm 14.6 W 14 17 1014.1 - 0.0 - - 10 - - - -
26/06:30pm 14.6 WSW 13 15 1013.7 - 0.0 - - 10 - - - -
26/06:00pm 15.9 W 14 20 1013.3 F 0.0 Fine Mostly clear 30 - - - -
26/05:30pm 16.3 WNW 18 25 1013.2 - 0.0 - - 10 - - - -
26/05:00pm 17.3 WNW 11 20 1012.9 - 0.0 - - 10 - - - -
26/04:30pm 18.1 NE 5 9 1012.6 - 0.0 - - 10 - - - -
26/04:00pm 17.1 E 9 11 1012.5 - 0.0 - - 10 - - - -
26/03:30pm 17.1 E 10 13 1012.7 - 0.0 - - 10 - - - -
26/03:00pm 17.1 E 11 14 1012.9 S 0.0 Fine Mostly clear 30 - - - -
26/02:30pm 17.1 E 9 13 1012.8 - 0.0 - - 10 - - - -
26/02:00pm 16.9 E 10 14 1013.0 - 0.0 - - 10 - - - -
26/01:30pm 17.0 E 10 14 1013.2 - 0.0 - - 10 - - - -
26/01:00pm 17.0 E 9 13 1013.4 - 0.0 - - 10 - - - -
26/12:30pm 16.8 SE 7 9 1013.8 - 0.0 - - 10 - - - -
26/12:00pm 16.8 SSE 6 8 1014.3 R 0.0 Fine Mostly clear 30 - - - -
26/11:30am 15.9 SSE 6 8 1014.6 - 0.0 - Partly cloudy 10 - - - -
26/11:00am 15.7 SSW 5 7 1014.9 - 0.0 - - 10 - - - -
26/10:30am 16.6 W 5 6 1015.0 - 0.0 - - 10 - - - -
26/10:00am 17.5 NNW 5 7 1015.2 - 0.0 - - 10 - - - -
26/09:30am 16.0 N 7 10 1014.9 - 0.0 - Mostly clear 10 - - - -
26/09:00am 15.8 N 7 9 1014.6 R 0.0 Fine Mostly clear 30 - - - -
26/08:30am 14.7 N 8 9 1014.4 - 0.0 - Mostly clear 10 - - - -
26/08:00am 13.1 N 7 9 1014.2 - 0.0 - Mostly clear 10 - - - -
26/07:30am 11.8 N 7 9 1014.0 - 0.0 - Mostly clear 10 - - - -
26/07:00am 11.9 N 8 10 1013.5 - 0.0 - Mostly clear 10 - - - -
26/06:30am 11.6 NNE 9 10 1012.9 - 0.0 - Mostly clear 10 - - - -
26/06:00am 10.9 N 7 9 1012.7 S 0.0 Fine Mostly clear 30 - - - -
26/05:30am 10.5 N 9 11 1012.5 - 0.0 - - 10 - - - -
26/05:00am 10.3 N 10 12 1012.0 - 0.0 - - 10 - - - -
26/04:30am 10.2 NNE 9 10 1011.8 - 0.0 - - 10 - - - -
26/04:00am 10.1 NNE 7 8 1011.9 - 0.0 - - 10 - - - -
26/03:30am 10.5 N 8 9 1012.0 - 0.0 - - 10 - - - -
26/03:00am 10.2 N 7 9 1012.4 R 0.0 Fine Clear 30 - - - -
26/02:30am 10.3 N 8 9 1012.5 - 0.0 - - 10 - - - -
26/02:00am 11.0 NNE 7 8 1012.6 - 0.0 - - 10 - - - -
26/01:30am 10.6 NNE 8 9 1012.5 - 0.0 - - 10 - - - -
26/01:00am 10.5 NE 7 9 1012.7 - 0.0 - - 10 - - - -
26/12:30am 11.1 NNE 7 8 1012.5 - 0.0 - - 10 - - - -
26/12:00am 11.2 N 9 11 1012.8 F 0.0 Fine Clear 30 - - - -
 
Date/Time
EST
Temp
°C
Wind Pressure Rain since
9am
mm
Weather Cloud Vis
km
Sea
Height
m
Swell
Dir  Spd
kts
Gust
kts
hPa Trend Height
m
Period
s
Dir
25/11:30pm 11.9 NNW 9 14 1013.0 - 0.0 - - 10 - - - -
25/11:00pm 11.7 NW 9 14 1013.2 - 0.0 - - 10 - - - -
25/10:30pm 12.0 NW 11 15 1013.2 - 0.0 - - 10 - - - -
25/10:00pm 12.4 NNW 11 15 1013.1 - 0.0 - - 10 - - - -
25/09:30pm 12.6 NNW 11 17 1013.1 - 0.0 - - 10 - - - -
25/09:00pm 12.6 NNW 10 13 1013.2 S 0.0 Fine Clear 30 - - - -
25/08:30pm 13.0 NNW 12 16 1013.0 - 0.0 - - 10 - - - -
25/08:00pm 13.7 NW 15 18 1012.8 - 0.0 - - 10 - - - -
25/07:30pm 13.8 NW 17 22 1012.9 - 0.0 - - 10 - - - -
25/07:00pm 14.2 NW 16 20 1012.8 - 0.0 - - 10 - - - -
25/06:30pm 14.3 WNW 17 22 1012.6 - 0.0 - Mostly clear 10 - - - -
25/06:00pm 14.6 WNW 18 24 1012.2 F 0.0 Fine Mostly clear 30 - - - -
25/05:30pm 14.9 WNW 15 20 1011.7 - 0.0 - Mostly clear 10 - - - -
25/05:06pm 15.2 WNW 18 28 1011.7 - 0.0 - - 10 - - - -
25/05:00pm 15.5 WNW 19 28 1011.6 - 0.0 - - 10 - - - -
25/04:30pm 16.6 WNW 17 22 1011.6 - 0.0 - - 10 - - - -
25/04:00pm 16.9 WNW 19 27 1011.4 - 0.0 - - 10 - - - -
25/03:30pm 17.3 WNW 15 21 1011.3 - 0.0 - - 10 - - - -
25/03:00pm 17.5 WNW 13 17 1011.5 R 0.0 Fine Mostly clear 30 - - - -
25/02:30pm 18.1 WNW 17 23 1011.2 - 0.0 - - 10 - - - -
25/02:19pm 18.2 W 15 25 1011.2 - 0.0 - - 10 - - - -
25/02:00pm 18.7 WNW 14 21 1011.4 - 0.0 - - 10 - - - -
25/01:30pm 18.0 WNW 14 20 1011.5 - 0.0 - - 10 - - - -
25/01:00pm 17.8 W 12 17 1011.5 - 0.0 - - 10 - - - -

Other Formats:

Comma delimited format used in spreadsheet applications
http://www.bom.gov.au/fwo/IDN60701/IDN60701.94767.axf

JavaScript Object Notation format (JSON) in row-major order
http://www.bom.gov.au/fwo/IDN60701/IDN60701.94767.json